createdAt,value
2018-04-15T00:00:35.095Z,24.8
2018-04-15T00:10:34.347Z,24.9
2018-04-15T00:20:33.775Z,24.9
2018-04-15T00:30:32.811Z,24.9
2018-04-15T00:40:32.206Z,24.9
2018-04-15T00:50:31.129Z,24.9
2018-04-15T01:00:30.399Z,24.9
2018-04-15T01:10:29.852Z,24.9
2018-04-15T01:20:29.096Z,24.9
2018-04-15T01:30:28.295Z,24.9
2018-04-15T01:40:27.810Z,24.9
2018-04-15T01:50:26.444Z,24.9
2018-04-15T02:00:25.644Z,24.9
2018-04-15T02:10:24.869Z,24.9
2018-04-15T02:20:24.411Z,24.9
2018-04-15T02:30:23.319Z,24.8
2018-04-15T02:40:22.591Z,24.8
2018-04-15T02:50:21.737Z,24.8
2018-04-15T03:00:21.226Z,24.8
2018-04-15T03:10:20.193Z,24.8
2018-04-15T03:20:19.455Z,24.8
2018-04-15T03:30:18.633Z,24.8
2018-04-15T03:40:17.818Z,24.8
2018-04-15T03:50:17.131Z,24.8
2018-04-15T04:00:16.323Z,24.8
2018-04-15T04:10:15.488Z,24.8
2018-04-15T04:20:14.969Z,24.8
2018-04-15T04:30:14.274Z,24.8
2018-04-15T04:40:13.169Z,24.8
2018-04-15T04:50:12.355Z,24.8
2018-04-15T05:00:11.609Z,24.8
2018-04-15T05:10:11.060Z,24.8
2018-04-15T05:20:10.129Z,24.6
2018-04-15T05:30:09.529Z,24.5
2018-04-15T05:40:08.448Z,24.4
2018-04-15T05:50:07.668Z,24.4
2018-04-15T06:00:07.175Z,24.3
2018-04-15T06:10:06.448Z,24.3
2018-04-15T06:20:05.292Z,24.2
2018-04-15T06:30:04.555Z,24.2
2018-04-15T06:40:04.111Z,24.1
2018-04-15T06:50:03.011Z,24.1
2018-04-15T07:00:02.174Z,24.1
2018-04-15T07:10:01.392Z,23.9
2018-04-15T07:20:00.594Z,23.9
2018-04-15T07:29:59.816Z,23.8
2018-04-15T07:39:59.053Z,23.8
2018-04-15T07:49:58.538Z,23.7
2018-04-15T07:59:57.806Z,23.6
2018-04-15T08:09:56.693Z,23.6
2018-04-15T08:19:56.194Z,23.6
2018-04-15T08:29:55.199Z,23.7
2018-04-15T08:39:54.374Z,23.7
2018-04-15T08:49:53.639Z,23.6
2018-04-15T08:59:52.779Z,23.6
2018-04-15T09:09:52.004Z,23.7
2018-04-15T09:19:51.224Z,23.6
2018-04-15T09:29:50.721Z,23.4
2018-04-15T09:39:49.668Z,23.3
2018-04-15T09:49:48.986Z,23.3
2018-04-15T09:59:48.147Z,23.1
2018-04-15T10:09:47.317Z,23.1
2018-04-15T10:19:46.566Z,23.1
2018-04-15T10:29:45.815Z,22.9
2018-04-15T10:39:45.302Z,22.9
2018-04-15T10:49:44.538Z,23.1
2018-04-15T10:59:43.422Z,23.2
2018-04-15T11:09:42.928Z,23.2
2018-04-15T11:19:41.891Z,23.1
2018-04-15T11:29:41.117Z,23.2
2018-04-15T11:39:40.317Z,23.4
2018-04-15T11:49:39.803Z,23.5
2018-04-15T11:59:38.868Z,23.6
2018-04-15T12:09:37.979Z,23.7
2018-04-15T12:19:37.249Z,23.8
2018-04-15T12:29:36.377Z,23.8
2018-04-15T12:39:35.734Z,23.9
2018-04-15T12:49:34.810Z,23.9
2018-04-15T12:59:34.403Z,23.9
2018-04-15T13:09:33.363Z,24
2018-04-15T13:19:32.468Z,24
2018-04-15T13:29:31.969Z,24
2018-04-15T13:39:30.961Z,24
2018-04-15T13:49:30.144Z,24
2018-04-15T13:59:29.395Z,24
2018-04-15T14:09:28.873Z,24
2018-04-15T14:19:28.102Z,23.9
2018-04-15T14:29:26.991Z,23.9
2018-04-15T14:39:26.517Z,23.9
2018-04-15T14:49:25.505Z,23.9
2018-04-15T14:59:24.919Z,23.9
2018-04-15T15:09:24.224Z,23.9
2018-04-15T15:19:23.103Z,23.9
2018-04-15T15:29:22.632Z,23.9
2018-04-15T15:39:21.544Z,23.9
2018-04-15T15:49:20.743Z,23.8
2018-04-15T15:59:20.001Z,23.9
2018-04-15T16:09:19.442Z,24.1
2018-04-15T16:19:18.370Z,24
2018-04-15T16:29:18.221Z,23.9
2018-04-15T16:39:16.834Z,24
2018-04-15T16:49:16.110Z,24
2018-04-15T16:59:15.246Z,24
2018-04-15T17:09:14.464Z,23.9
2018-04-15T17:19:14.094Z,23.9
2018-04-15T17:29:12.891Z,23.9
2018-04-15T17:39:12.178Z,23.9
2018-04-15T17:49:11.608Z,23.9
2018-04-15T17:59:10.605Z,23.9
2018-04-15T18:09:09.781Z,23.9
2018-04-15T18:19:09.024Z,23.9
2018-04-15T18:29:08.213Z,24
2018-04-15T18:39:07.520Z,24.3
2018-04-15T18:49:06.670Z,24.2
2018-04-15T18:59:05.851Z,24.1
2018-04-15T19:09:05.061Z,24.1
2018-04-15T19:19:04.301Z,24.1
2018-04-15T19:29:03.523Z,24.1
2018-04-15T19:39:03.012Z,24.1
2018-04-15T19:49:02.208Z,24.6
2018-04-15T19:59:01.148Z,24.6
2018-04-15T20:09:00.513Z,24.5
2018-04-15T20:18:59.604Z,24.4
2018-04-15T20:28:59.138Z,24.4
2018-04-15T20:38:58.033Z,24.4
2018-04-15T20:48:57.231Z,24.3
2018-04-15T20:58:56.446Z,24.3
2018-04-15T21:08:55.951Z,24.2
2018-04-15T21:18:55.166Z,24.2
2018-04-15T21:28:54.726Z,24.2
2018-04-15T21:38:53.325Z,24.3
2018-04-15T21:48:52.822Z,24.3
2018-04-15T21:58:52.033Z,24.4
2018-04-15T22:08:51.089Z,24.4
2018-04-15T22:18:50.475Z,24.4
2018-04-15T22:28:49.492Z,24.4
2018-04-15T22:38:48.899Z,24.4
2018-04-15T22:48:48.117Z,24.4
2018-04-15T22:58:47.159Z,24.4
2018-04-15T23:08:46.564Z,24.4
2018-04-15T23:18:45.490Z,24.4
2018-04-15T23:28:44.993Z,24.3
2018-04-15T23:38:43.916Z,24.3
2018-04-15T23:48:43.589Z,24.3
2018-04-15T23:58:42.350Z,24.3
